Home > Products > Valid Products > TAF

000
FTUS46 KSGX 181700
TAFTRM
TAF
KTRM 181720Z 1818/1918 VRB04KT 6SM HZ SCT100
     FM182100 VRB06KT P6SM SCT100=



000
FTUS46 KSGX 181700
TAFONT
TAF
KONT 181720Z 1818/1924 VRB04KT P6SM VCSH SCT040 BKN080
     FM182100 26007KT P6SM SCT040 BKN080
     FM190300 VRB04KT P6SM SCT030
     FM190600 VRB04KT P6SM BKN020
     FM191400 VRB04KT P6SM SCT020
     FM192130 26008KT P6SM SCT030=



000
FTUS46 KSGX 181700
TAFSNA
TAF
KSNA 181720Z 1818/1918 22008KT P6SM VCSH FEW030 SCT080
     FM182100 22009KT P6SM SCT030 SCT080
     FM190100 VRB04KT P6SM SCT030
      TEMPO 1908/1912 BKN030=



000
FTUS46 KSGX 181700
TAFSAN
TAF
KSAN 181720Z 1818/1924 VRB03KT P6SM VCSH SCT040 BKN050
     FM182100 29009KT P6SM SCT035 BKN050
     FM190100 VRB04KT P6SM SCT030
      TEMPO 1906/1910 BKN030
     FM192100 29009KT P6SM BKN030=



000
FTUS46 KSGX 181700
TAFPSP
TAF
KPSP 181720Z 1818/1918 VRB06KT P6SM SCT100=



000
FTUS46 KSGX 181700
TAFCRQ
TAF
KCRQ 181720Z 1818/1918 VRB04KT P6SM VCSH SCT030 BKN050
     FM182100 26008KT P6SM SCT030 BKN050
     FM190100 VRB04KT P6SM SCT030
      TEMPO 1908/1912 BKN025=



000
FTUS46 KSGX 181500 AAA
TAFSAN
TAF AMD
KSAN 181506Z 1815/1918 VRB03KT P6SM VCSH SCT040 SCT080
     FM181900 29009KT P6SM SCT035 SCT080
     FM190100 VRB04KT P6SM SCT030
      TEMPO 1906/1910 BKN030
     FM191500 VRB04KT P6SM SCT030=



000
FTUS46 KSGX 181300 AAA
TAFTRM
TAF AMD
KTRM 181338Z 1814/1912 VRB04KT 3SM BR SKC
      TEMPO 1814/1815 1SM BR
     FM181630 VRB05KT P6SM SCT090=



000
FTUS46 KSGX 181300 AAA
TAFTRM
TAF AMD
KTRM 181338Z 1814/1912 VRB04KT 3SM BR SKC
      TEMPO 1814/1815 1SM BR
     FM181630 VRB05KT P6SM SCT090=



000
FTUS46 KSGX 181100
TAFCRQ
TAF
KCRQ 181138Z 1812/1912 VRB05KT P6SM VCSH SCT030 BKN040
     FM181800 25007KT P6SM SCT035 SCT080
     FM190100 VRB04KT P6SM SCT030
      TEMPO 1906/1910 BKN025=



000
FTUS46 KSGX 181100
TAFTRM
TAF
KTRM 181138Z 1812/1912 VRB04KT 3SM BR SKC
      TEMPO 1812/1815 2SM BR
     FM181630 VRB05KT P6SM SCT090=



000
FTUS46 KSGX 181100
TAFPSP
TAF
KPSP 181138Z 1812/1912 32005KT P6SM SCT080=



000
FTUS46 KSGX 181100
TAFSNA
TAF
KSNA 181138Z 1812/1912 VRB04KT P6SM SCT030 BKN080
     FM181800 22008KT P6SM SCT040 SCT080
     FM190100 VRB04KT P6SM SCT030
      TEMPO 1908/1912 BKN030=



000
FTUS46 KSGX 181100
TAFONT
TAF
KONT 181138Z 1812/1918 VRB04KT P6SM SCT030 BKN080
     FM181900 26007KT P6SM SCT040 SCT090
     FM190300 VRB04KT P6SM SCT030=



000
FTUS46 KSGX 181100
TAFSAN
TAF
KSAN 181138Z 1812/1918 VRB03KT P6SM VCSH SCT030 BKN050
     FM181900 29009KT P6SM SCT035 SCT080
     FM190100 VRB04KT P6SM SCT030
      TEMPO 1906/1910 BKN030
     FM191500 VRB04KT P6SM SCT030=



000
FTUS46 KSGX 180900 AAA
TAFSAN
TAF AMD
KSAN 180919Z 1809/1912 VRB03KT P6SM VCSH SCT030 BKN040
     FM181300 VRB04KT P6SM BKN040
     FM181800 29009KT P6SM SCT040
     FM190100 VRB04KT P6SM SCT040=



000
FTUS46 KSGX 180900 AAA
TAFSAN
TAF AMD
KSAN 180919Z 1809/1912 VRB03KT P6SM VCSH SCT030 BKN040
     FM181300 VRB04KT P6SM BKN040
     FM181800 29009KT P6SM SCT040
     FM190100 VRB04KT P6SM SCT040=



000
FTUS46 KSGX 180500
TAFPSP
TAF
KPSP 180520Z 1806/1906 VRB05KT P6SM SCT060 SCT120=



000
FTUS46 KSGX 180500
TAFSAN
TAF
KSAN 180520Z 1806/1912 VRB04KT P6SM SCT040 BKN150
     FM180900 VRB04KT P6SM VCSH BKN040
     FM181300 VRB04KT P6SM BKN040
     FM182000 29009KT P6SM SCT040
     FM190100 VRB04KT P6SM SCT040=



000
FTUS46 KSGX 180500
TAFSNA
TAF
KSNA 180520Z 1806/1906 VRB05KT P6SM SCT035=



000
FTUS46 KSGX 180500
TAFTRM
TAF
KTRM 180520Z 1806/1906 VRB05KT 6SM BR SCT070 SCT120
     FM180900 VRB05KT 5SM BR SCT100
      TEMPO 1811/1815 2SM BR
     FM181600 VRB05KT P6SM SCT100=



000
FTUS46 KSGX 180500
TAFONT
TAF
KONT 180520Z 1806/1912 VRB05KT P6SM SCT035 SCT100=



000
FTUS46 KSGX 180500
TAFCRQ
TAF
KCRQ 180520Z 1806/1906 VRB05KT P6SM SCT035=



000
FTUS46 KSGX 180200 AAA
TAFSAN
TAF AMD
KSAN 180258Z 1803/1906 VRB04KT P6SM SCT040 BKN150
     FM180800 VRB04KT P6SM VCSH BKN040
     FM181700 VRB04KT P6SM BKN040
     FM182000 29009KT P6SM SCT040
     FM190100 VRB04KT P6SM SCT040=



000
FTUS46 KSGX 180200 AAB
TAFCRQ
TAF AMD
KCRQ 180258Z 1803/1824 VRB04KT P6SM SCT035 BKN200
     FM180700 VRB04KT P6SM VCSH BKN035
     FM181200 VRB04KT P6SM BKN035
     FM181900 27008KT P6SM SCT035=



000
FTUS46 KSGX 180000 AAA
TAFCRQ
TAF AMD
KCRQ 180006Z 1800/1824 VRB04KT P6SM SCT030 BKN200
      TEMPO 1800/1802 BKN030
     FM180200 VRB04KT P6SM VCSH BKN035
     FM181200 VRB04KT P6SM BKN035
     FM181900 27008KT P6SM SCT035=



000
FTUS46 KSGX 172300
TAFPSP
TAF
KPSP 172337Z 1800/1824 VRB05KT P6SM SCT050 SCT200=



000
FTUS46 KSGX 172300
TAFSNA
TAF
KSNA 172337Z 1800/1824 VRB04KT P6SM SCT030 BKN200
     FM181900 23006KT P6SM SCT035=



000
FTUS46 KSGX 172300
TAFTRM
TAF
KTRM 172337Z 1800/1824 VRB05KT P6SM SCT070 SCT200=



000
FTUS46 KSGX 172300
TAFCRQ
TAF
KCRQ 172337Z 1800/1824 VRB04KT P6SM SCT030 BKN200
     FM180200 VRB04KT P6SM VCSH BKN035
     FM181200 VRB04KT P6SM BKN035
     FM181900 27008KT P6SM SCT035=



000
FTUS46 KSGX 172300
TAFONT
TAF
KONT 172337Z 1800/1906 VRB04KT P6SM SCT020 BKN035
     FM182000 26009KT P6SM SCT050
     FM190100 VRB04KT P6SM SCT050=



000
FTUS46 KSGX 172300
TAFSAN
TAF
KSAN 172337Z 1800/1906 29010KT P6SM SCT040 BKN200
     FM180200 28006KT P6SM VCSH BKN040
     FM181700 VRB04KT P6SM SCT025 BKN035
     FM182000 29009KT P6SM SCT025 SCT060
     FM190100 VRB04KT P6SM SCT040=



000
FTUS46 KSGX 172200 AAB
TAFPSP
TAF AMD
KPSP 172205Z 1722/1818 10006KT P6SM SCT030 BKN120
     FM172330 33007KT P6SM SCT050 BKN120
     FM180600 VRB04KT P6SM SCT070=



000
FTUS46 KSGX 172100 AAA
TAFTRM
TAF AMD
KTRM 172110Z 1721/1818 VRB06KT 4SM BR VCSH SCT015 OVC040
     FM172200 33007KT P6SM SCT020 BKN040
     FM180700 VRB04KT P6SM SCT070=



000
FTUS46 KSGX 172100 AAA
TAFTRM
TAF AMD
KTRM 172110Z 1721/1818 VRB06KT 4SM BR VCSH SCT015 OVC040
     FM172200 33007KT P6SM SCT020 BKN040
     FM180700 VRB04KT P6SM SCT070=



000
FTUS46 KSGX 172100 AAA
TAFPSP
TAF AMD
KPSP 172109Z 1721/1818 VRB06KT P6SM BKN025 OVC120
     FM172330 33007KT P6SM SCT050 BKN120
     FM180600 VRB04KT P6SM SCT070=



000
FTUS46 KSGX 172100 AAA
TAFPSP
TAF AMD
KPSP 172109Z 1721/1818 VRB06KT P6SM BKN025 OVC120
     FM172330 33007KT P6SM SCT050 BKN120
     FM180600 VRB04KT P6SM SCT070=



000
FTUS46 KSGX 172100 AAA
TAFCRQ
TAF AMD
KCRQ 172108Z 1721/1818 25011KT P6SM SCT025 SCT040
     FM180100 VRB05KT P6SM BKN035
     FM181200 VRB04KT P6SM BKN025 OVC035=



000
FTUS46 KSGX 172100 AAA
TAFSAN
TAF AMD
KSAN 172107Z 1721/1824 26011G18KT P6SM SCT025 BKN040
     FM180200 28006KT P6SM BKN040
     FM181200 VRB05KT P6SM VCSH BKN025 OVC035
     FM181700 VRB04KT P6SM SCT025 BKN035
     FM182000 29009KT P6SM SCT025 SCT060=



000
FTUS46 KSGX 171700
TAFSNA
TAF
KSNA 171723Z 1718/1818 20009KT P6SM SCT020 SCT120
     FM180300 VRB04KT P6SM SCT025 SCT035=



000
FTUS46 KSGX 171700
TAFTRM
TAF
KTRM 171723Z 1718/1818 VRB06KT 4SM BR VCSH BKN014 OVC025
     FM172200 33007KT P6SM SCT015 BKN060
     FM180700 VRB04KT P6SM SCT070=



000
FTUS46 KSGX 171700
TAFPSP
TAF
KPSP 171723Z 1718/1818 VRB06KT 3SM BR VCSH BKN025 OVC040
     FM172100 33007KT P6SM SCT050 BKN120
     FM180600 VRB04KT P6SM SCT070=



000
FTUS46 KSGX 171700
TAFONT
TAF
KONT 171723Z 1718/1824 24005KT P6SM -SHRA SCT014 BKN035 BKN040
     FM172000 25008KT P6SM SCT020 BKN035
     FM180200 VRB04KT P6SM SCT020 BKN030
     FM180600 VRB03KT P6SM SCT015 SCT050
     FM182100 26009KT P6SM SCT050=



000
FTUS46 KSGX 171700
TAFCRQ
TAF
KCRQ 171723Z 1718/1818 VRB05KT P6SM SCT025 BKN040
      TEMPO 1718/1720 BKN025
     FM172100 27009KT P6SM SCT025 SCT040
     FM180100 VRB04KT P6SM BKN035
     FM181200 VRB04KT P6SM BKN025 OVC035=



000
FTUS46 KSGX 171700
TAFSAN
TAF
KSAN 171723Z 1718/1824 VRB05KT P6SM SCT025 SCT040
     FM172000 28010KT P6SM SCT025 SCT040
     FM180200 VRB05KT P6SM BKN035
     FM181200 VRB05KT P6SM VCSH BKN025 OVC035
     FM181700 VRB04KT P6SM SCT025 BKN035
     FM182000 29009KT P6SM SCT025 SCT060=



000
FTUS46 KSGX 171400 AAB
TAFCRQ
TAF AMD
KCRQ 171448Z 1715/1812 24008KT P6SM VCSH SCT025 BKN035
      TEMPO 1715/1717 BKN025
     FM171800 26010KT P6SM VCSH SCT025 BKN035
     FM180100 VRB04KT P6SM BKN035=



000
FTUS46 KSGX 171400 AAA
TAFPSP
TAF AMD
KPSP 171424Z 1714/1812 VRB05KT P6SM -RA BKN040 OVC070
      TEMPO 1714/1716 3SM SHRA BR BKN020
     FM171800 VRB05KT P6SM VCSH SCT050 BKN070
     FM172100 33007KT P6SM SCT050 BKN070
     FM180600 VRB04KT P6SM SCT070=



000
FTUS46 KSGX 171300 AAA
TAFONT
TAF AMD
KONT 171328Z 1713/1818 24005KT P6SM VCSH SCT014 BKN045
     FM172100 25008KT P6SM SCT025 BKN035
     FM180200 VRB04KT P6SM SCT020 BKN030
     FM180600 VRB03KT P6SM SCT020 SCT030=



000
FTUS46 KSGX 171300 AAA
TAFCRQ
TAF AMD
KCRQ 171309Z 1713/1812 24010KT 4SM RA VCTS SCT012 OVC030CB
      TEMPO 1713/1714 2SM +RA BKN010
     FM171430 24008KT P6SM -SHRA SCT025 BKN035
     FM171800 26010KT P6SM VCSH SCT025 BKN035
     FM180100 VRB04KT P6SM BKN035=



000
FTUS46 KSGX 171300 AAA
TAFSAN
TAF AMD
KSAN 171306Z 1713/1818 18005KT 5SM RA VCTS SCT015 OVC025CB
      TEMPO 1713/1714 2SM +RA BKN015
     FM171500 21007KT P6SM -SHRA SCT025 BKN035
     FM172000 28010KT P6SM VCSH SCT025 BKN035
     FM180100 30005KT P6SM BKN035
     FM181700 VRB04KT P6SM SCT030=



000
FTUS46 KSGX 171300 AAA
TAFSNA
TAF AMD
KSNA 171305Z 1713/1812 21007KT P6SM VCSH SCT015 BKN040
     FM171800 22009KT P6SM SCT025 BKN035
     FM180100 VRB04KT P6SM SCT025 SCT035=



000
FTUS46 KSGX 171100
TAFTRM
TAF
KTRM 171128Z 1712/1812 VRB05KT P6SM -RA BKN040 OVC070
      TEMPO 1714/1717 5SM SHRA BKN020
     FM171900 VRB05KT P6SM VCSH SCT050 BKN070
     FM172200 33007KT P6SM SCT050 BKN070
     FM180700 VRB04KT P6SM SCT070=



000
FTUS46 KSGX 171100
TAFCRQ
TAF
KCRQ 171128Z 1712/1812 15008KT 5SM RA VCTS BKN025CB OVC035
      TEMPO 1712/1714 2SM +RA BKN010
     FM171600 22008KT P6SM -SHRA SCT025 BKN035
     FM171900 26010KT P6SM VCSH SCT025 BKN035
     FM180100 VRB04KT P6SM BKN035=



000
FTUS46 KSGX 171100
TAFSAN
TAF
KSAN 171128Z 1712/1818 18010KT P6SM RA VCTS BKN025CB OVC035
      TEMPO 1713/1715 3SM +RA BKN015
     FM171700 23010KT P6SM -SHRA SCT025 BKN035
     FM172000 28010KT P6SM VCSH SCT025 BKN035
     FM180100 30005KT P6SM BKN035
     FM181700 VRB04KT P6SM SCT030=



000
FTUS46 KSGX 171100
TAFONT
TAF
KONT 171128Z 1712/1818 VRB06KT 5SM RA VCTS BKN015CB OVC025
      TEMPO 1712/1714 2SM +RA BKN008
     FM171600 VRB06KT P6SM VCSH SCT015 BKN030
     FM172100 25008KT P6SM SCT025 BKN035
     FM180200 VRB04KT P6SM SCT020 BKN030
     FM180600 VRB03KT P6SM SCT020 SCT030=



000
FTUS46 KSGX 171100
TAFSNA
TAF
KSNA 171128Z 1712/1812 16008KT 5SM RA VCTS BKN020CB OVC035
      TEMPO 1712/1713 2SM +RA BKN010
     FM171530 18006KT P6SM VCSH SCT020 BKN035
     FM171900 22009KT P6SM SCT025 BKN035
     FM180100 VRB04KT P6SM SCT025 SCT035=



000
FTUS46 KSGX 171100
TAFPSP
TAF
KPSP 171128Z 1712/1812 VRB05KT P6SM -RA BKN040 OVC070
      TEMPO 1713/1716 5SM SHRA BKN020
     FM171800 VRB05KT P6SM VCSH SCT050 BKN070
     FM172100 33007KT P6SM SCT050 BKN070
     FM180600 VRB04KT P6SM SCT070=



000
FTUS46 KSGX 170900 AAB
TAFSNA
TAF AMD
KSNA 170923Z 1709/1806 VRB06KT P6SM SHRA VCTS BKN020 BKN030CB
      TEMPO 1709/1711 3SM +SHRA BKN010
     FM171100 19008KT 5SM RA VCTS BKN020 OVC025CB
      TEMPO 1712/1713 2SM +RA BKN012
     FM171500 VRB04KT P6SM VCSH SCT015 BKN035
     FM171900 21007KT P6SM SCT025 BKN040
     FM180100 VRB04KT P6SM BKN040=



000
FTUS46 KSGX 170900 AAB
TAFSNA
TAF AMD
KSNA 170923Z 1709/1806 VRB06KT P6SM SHRA VCTS BKN020 BKN030CB
      TEMPO 1709/1711 3SM +SHRA BKN010
     FM171100 19008KT 5SM RA VCTS BKN020 OVC025CB
      TEMPO 1712/1713 2SM +RA BKN012
     FM171500 VRB04KT P6SM VCSH SCT015 BKN035
     FM171900 21007KT P6SM SCT025 BKN040
     FM180100 VRB04KT P6SM BKN040=



000
FTUS46 KSGX 170900 AAA
TAFCRQ
TAF AMD
KCRQ 170913Z 1709/1806 VRB04KT P6SM SHRA SCT025 BKN035
     FM171300 15007KT 5SM RA VCTS BKN015 OVC025CB
      TEMPO 1713/1715 2SM +RA BKN008
     FM171600 27008KT P6SM VCSH SCT015 BKN030
     FM180100 29005KT P6SM BKN035=



000
FTUS46 KSGX 170900 AAA
TAFCRQ
TAF AMD
KCRQ 170913Z 1709/1806 VRB04KT P6SM SHRA SCT025 BKN035
     FM171300 15007KT 5SM RA VCTS BKN015 OVC025CB
      TEMPO 1713/1715 2SM +RA BKN008
     FM171600 27008KT P6SM VCSH SCT015 BKN030
     FM180100 29005KT P6SM BKN035=



000
FTUS46 KSGX 170900 AAA
TAFONT
TAF AMD
KONT 170910Z 1709/1812 VRB05KT P6SM SCT025 BKN060
     FM171200 VRB06KT 5SM RA VCTS BKN015 OVC025CB
      TEMPO 1712/1713 2SM +RA BKN008
     FM171430 VRB04KT P6SM VCSH SCT020 BKN030
     FM172000 25006KT P6SM BKN040=



000
FTUS46 KSGX 170900 AAA
TAFONT
TAF AMD
KONT 170910Z 1709/1812 VRB05KT P6SM SCT025 BKN060
     FM171200 VRB06KT 5SM RA VCTS BKN015 OVC025CB
      TEMPO 1712/1713 2SM +RA BKN008
     FM171430 VRB04KT P6SM VCSH SCT020 BKN030
     FM172000 25006KT P6SM BKN040=



000
FTUS46 KSGX 170900 AAA
TAFSNA
TAF AMD
KSNA 170909Z 1709/1806 14005KT P6SM SCT022 BKN045
     FM171100 19008KT 5SM RA VCTS BKN020 OVC025CB
      TEMPO 1712/1713 2SM +RA BKN012
     FM171500 VRB04KT P6SM VCSH SCT015 BKN035
     FM171900 21007KT P6SM SCT025 BKN040
     FM180100 VRB04KT P6SM BKN040=



000
FTUS46 KSGX 170900 AAA
TAFSNA
TAF AMD
KSNA 170909Z 1709/1806 14005KT P6SM SCT022 BKN045
     FM171100 19008KT 5SM RA VCTS BKN020 OVC025CB
      TEMPO 1712/1713 2SM +RA BKN012
     FM171500 VRB04KT P6SM VCSH SCT015 BKN035
     FM171900 21007KT P6SM SCT025 BKN040
     FM180100 VRB04KT P6SM BKN040=



000
FTUS46 KSGX 170900 AAA
TAFSAN
TAF AMD
KSAN 170906Z 1709/1812 12006KT P6SM -SHRA SCT025 BKN040
     FM171300 18010KT 5SM RA VCTS BKN020 OVC030CB
      TEMPO 1714/1715 2SM +RA BKN012
     FM171700 29010KT P6SM VCSH SCT020 BKN035
     FM180100 29006KT P6SM BKN040=



000
FTUS46 KSGX 170900 AAA
TAFSAN
TAF AMD
KSAN 170906Z 1709/1812 12006KT P6SM -SHRA SCT025 BKN040
     FM171300 18010KT 5SM RA VCTS BKN020 OVC030CB
      TEMPO 1714/1715 2SM +RA BKN012
     FM171700 29010KT P6SM VCSH SCT020 BKN035
     FM180100 29006KT P6SM BKN040=



000
FTUS46 KSGX 170500
TAFSAN
TAF
KSAN 170527Z 1706/1812 16005KT P6SM VCSH SCT035 BKN070
     FM170900 19006KT P6SM -SHRA BKN025 OVC035
     FM171300 21010G15KT 5SM RA VCTS BKN020 OVC030CB
      TEMPO 1713/1716 2SM +RA BKN010
     FM171700 28012KT P6SM VCSH SCT020 BKN035
     FM180100 29006KT P6SM BKN040=



000
FTUS46 KSGX 170500
TAFSNA
TAF
KSNA 170527Z 1706/1806 13006KT P6SM VCSH SCT025 BKN035
     FM170700 16006KT P6SM -SHRA BKN025 BKN035
     FM171000 19008KT 5SM RA VCTS BKN015 OVC025CB
      TEMPO 1711/1714 2SM +RA BKN008
     FM171500 VRB04KT P6SM VCSH SCT015 BKN035
     FM171900 21007KT P6SM SCT025 BKN040
     FM180100 VRB04KT P6SM BKN040=



000
FTUS46 KSGX 170500
TAFONT
TAF
KONT 170527Z 1706/1812 12004KT P6SM VCSH BKN035 BKN045
     FM170700 05006KT P6SM -SHRA SCT015 BKN025
     FM171100 06006KT 5SM RA VCTS BKN015 OVC025CB
      TEMPO 1712/1715 2SM +RA BKN008
     FM171500 VRB04KT P6SM VCSH SCT020 BKN030
     FM172000 25006KT P6SM BKN040=



000
FTUS46 KSGX 170500
TAFPSP
TAF
KPSP 170527Z 1706/1806 VRB05KT P6SM BKN080 BKN120
     FM171200 VRB05KT P6SM VCSH SCT050 BKN080
      TEMPO 1715/1718 -SHRA BKN040 BKN060
     FM172100 33007KT P6SM SCT060 BKN120=



000
FTUS46 KSGX 170500
TAFCRQ
TAF
KCRQ 170527Z 1706/1806 15005KT P6SM VCSH SCT020 BKN035
     FM170700 16006KT P6SM -SHRA BKN020 BKN035
     FM171100 21008KT 5SM RA VCTS BKN015 OVC025CB
      TEMPO 1712/1715 2SM +RA BKN008
     FM171700 28008KT P6SM VCSH SCT015 BKN030
     FM180100 29005KT P6SM BKN035=



000
FTUS46 KSGX 170500
TAFTRM
TAF
KTRM 170527Z 1706/1806 VRB05KT P6SM BKN080 BKN120
     FM171300 VRB05KT P6SM VCSH SCT050 BKN080
      TEMPO 1716/1719 -SHRA BKN040 BKN060
     FM172200 VRB05KT P6SM SCT060 BKN120=



000
FTUS46 KSGX 170300 AAA
TAFCRQ
TAF AMD
KCRQ 170308Z 1703/1724 10006KT P6SM SCT050 BKN100
     FM170600 15007KT P6SM VCSH BKN020 OVC035
     FM171100 21008G15KT 5SM RA VCTS BKN015 OVC025CB
      TEMPO 1712/1715 2SM +RA BKN008
     FM171700 28008KT P6SM VCSH SCT015 BKN030=



000
FTUS46 KSGX 170300 AAA
TAFSNA
TAF AMD
KSNA 170307Z 1703/1724 13006KT P6SM VCSH SCT025 BKN035
     FM170800 16006KT P6SM -SHRA BKN025 BKN035
     FM171000 19010KT 5SM RA VCTS BKN015 OVC025CB
      TEMPO 1711/1714 2SM +RA BKN008
     FM171500 VRB04KT P6SM VCSH SCT015 BKN035
     FM171900 21007KT P6SM SCT025 BKN040=



000
FTUS46 KSGX 170300 AAA
TAFSAN
TAF AMD
KSAN 170306Z 1703/1806 16005KT P6SM VCSH SCT035 BKN070
     FM171000 19006KT P6SM -RA BKN025 OVC035
     FM171300 21010G15KT 5SM RA VCTS BKN020 OVC030CB
      TEMPO 1713/1716 2SM +RA BKN010
     FM171700 28012KT P6SM VCSH SCT020 BKN035
     FM180100 29006KT P6SM BKN040=



000
FTUS46 KSGX 170100 AAA
TAFONT
TAF AMD
KONT 170112Z 1701/1806 12004KT P6SM VCSH BKN035 BKN045
      TEMPO 1701/1703 5SM -SHRA BKN025 OVC035
     FM170900 05006KT P6SM -SHRA SCT015 BKN025
     FM171100 06006KT 5SM RA VCTS BKN015 OVC025CB
      TEMPO 1712/1715 2SM +RA BKN008
     FM171500 VRB04KT P6SM VCSH SCT020 BKN030
     FM172000 25006KT P6SM BKN040=



000
FTUS46 KSGX 162300
TAFONT
TAF
KONT 162334Z 1700/1806 12004KT P6SM VCSH BKN035 BKN045
     FM170900 05006KT P6SM -SHRA SCT015 BKN025
     FM171100 06006KT 5SM RA VCTS BKN015 OVC025CB
      TEMPO 1712/1715 2SM +RA BKN008
     FM171500 VRB04KT P6SM VCSH SCT020 BKN030
     FM172000 25006KT P6SM BKN040=



000
FTUS46 KSGX 162300
TAFSNA
TAF
KSNA 162334Z 1700/1724 13007KT P6SM VCSH BKN035 BKN050
     FM170300 13006KT P6SM VCSH BKN025 BKN035
     FM171000 19010G15KT 5SM RA VCTS BKN015 OVC025CB
      TEMPO 1711/1714 2SM +RA BKN008
     FM171500 VRB04KT P6SM VCSH SCT015 BKN035
     FM171900 21007KT P6SM SCT025 BKN040=



000
FTUS46 KSGX 162300
TAFCRQ
TAF
KCRQ 162334Z 1700/1724 10006KT P6SM SCT050 BKN100
     FM170700 15007KT P6SM VCSH BKN020 OVC035
     FM171200 21010G18KT 5SM RA VCTS BKN015 OVC025CB
      TEMPO 1712/1715 2SM +RA BKN008
     FM171700 28008KT P6SM VCSH SCT015 BKN030=



000
FTUS46 KSGX 162300
TAFSAN
TAF
KSAN 162334Z 1700/1806 15005KT 5SM SHRA SCT025 BKN045
     FM170030 16005KT P6SM VCSH SCT025 BKN035
     FM171100 19006KT P6SM -RA BKN025 OVC035
     FM171300 21014G22KT 5SM RA VCTS BKN020 OVC030CB
      TEMPO 1713/1716 2SM +RA BKN010
     FM171700 28012KT P6SM VCSH SCT020 BKN035
     FM180100 29006KT P6SM BKN040=



000
FTUS46 KSGX 162300
TAFTRM
TAF
KTRM 162334Z 1700/1724 VRB05KT P6SM VCSH BKN070 BKN100
     FM170200 VRB05KT P6SM BKN080 BKN120
     FM171500 VRB05KT P6SM VCSH SCT050 BKN080
      TEMPO 1716/1719 -SHRA BKN040 BKN060
     FM172200 VRB05KT P6SM SCT060 BKN120=



000
FTUS46 KSGX 162300
TAFPSP
TAF
KPSP 162334Z 1700/1724 VRB05KT P6SM VCSH BKN070 BKN100
     FM170100 VRB05KT P6SM BKN080 BKN120
     FM171400 VRB05KT P6SM VCSH SCT050 BKN080
      TEMPO 1715/1718 -SHRA BKN040 BKN060
     FM172100 33007KT P6SM SCT060 BKN120=



000
FTUS46 KSGX 162300 AAB
TAFSAN
TAF AMD
KSAN 162305Z 1623/1724 VRB05KT 5SM SHRA SCT025 BKN045
     FM170100 16005KT P6SM VCSH SCT025 BKN035
     FM170900 18007KT P6SM -RA BKN025 OVC035
     FM171200 21014G22KT 5SM RA VCTS BKN015 OVC025CB
      TEMPO 1713/1716 2SM +RA BKN010
     FM171700 24012KT P6SM SHRA VCTS SCT015 BKN025CB
     FM172200 29012KT P6SM VCSH SCT020 BKN035=



000
FTUS46 KSGX 162200 AAA
TAFONT
TAF AMD
KONT 162236Z 1623/1724 VRB05KT P6SM -SHRA SCT025 BKN045
      TEMPO 1623/1701 4SM SHRA BKN030
     FM170100 25006KT P6SM VCSH SCT025 BKN035
     FM170800 05006KT P6SM -SHRA SCT015 BKN025
     FM171100 19014KT 5SM RA VCTS BKN015 OVC025CB
      TEMPO 1712/1715 2SM +RA BKN010
     FM171500 VRB05KT P6SM VCSH SCT020 BKN030
     FM172000 25006KT P6SM FEW020 BKN040=



000
FTUS46 KSGX 162200 AAA
TAFSAN
TAF AMD
KSAN 162200Z 1622/1724 VRB06KT 5SM -SHRA VCTS SCT025 BKN045CB
     FM170100 16005KT P6SM VCSH SCT025 BKN035
     FM170900 18007KT P6SM -RA BKN025 OVC035
     FM171200 21014G22KT 5SM RA VCTS BKN015 OVC025CB
      TEMPO 1713/1716 2SM +RA BKN010
     FM171700 24012KT P6SM SHRA VCTS SCT015 BKN025CB
     FM172200 29012KT P6SM VCSH SCT020 BKN035=



000
FTUS46 KSGX 162100 AAA
TAFSNA
TAF AMD
KSNA 162146Z 1622/1718 13007KT P6SM VCSH BKN025 BKN040
     FM170000 13006KT P6SM VCSH BKN025 BKN035
     FM170600 13006KT P6SM -SHRA SCT015 BKN025
     FM171000 19012G20KT 5SM RA VCTS BKN015 OVC025CB
      TEMPO 1712/1715 2SM +RA BKN010
     FM171500 VRB05KT P6SM VCSH SCT015 BKN035=



000
FTUS46 KSGX 161700
TAFONT
TAF
KONT 161730Z 1618/1724 VRB05KT P6SM VCSH SCT025 BKN050
     FM162100 VRB05KT P6SM -SHRA SCT025 BKN045
     FM170000 25006KT P6SM VCSH SCT025 BKN035
     FM170600 05006KT P6SM -SHRA SCT015 BKN025
     FM171100 19014KT 5SM RA VCTS BKN015 OVC025CB
      TEMPO 1712/1715 2SM +RA BKN010
     FM171500 VRB05KT P6SM VCSH SCT020 BKN030
     FM172000 25006KT P6SM FEW020 BKN040=



000
FTUS46 KSGX 161700
TAFSAN
TAF
KSAN 161730Z 1618/1724 14006KT P6SM VCSH SCT030 BKN060
     FM161900 17008KT P6SM -SHRA SCT025 BKN045
     FM170100 16005KT P6SM VCSH SCT025 BKN035
     FM170900 18007KT P6SM -RA BKN025 OVC035
     FM171200 21014G22KT 5SM RA VCTS BKN015 OVC025CB
      TEMPO 1713/1716 2SM +RA BKN010
     FM171700 24012KT P6SM SHRA VCTS SCT015 BKN025CB
     FM172200 29012KT P6SM VCSH SCT020 BKN035=



000
FTUS46 KSGX 161700
TAFCRQ
TAF
KCRQ 161730Z 1618/1718 10006KT P6SM VCSH SCT030 BKN060
      WS015/16020KT
     FM162000 17007KT P6SM -SHRA SCT025 BKN045
     FM170100 13005KT P6SM VCSH SCT025 BKN035
     FM170700 15007KT P6SM SHRA BKN020 OVC035
     FM171100 21010G18KT 5SM RA VCTS BKN015 OVC025CB
      TEMPO 1712/1715 2SM +RA BKN010=



000
FTUS46 KSGX 161700
TAFPSP
TAF
KPSP 161730Z 1618/1718 12005KT P6SM BKN070 BKN150
     FM170000 VRB05KT P6SM SCT070 BKN100
     FM171200 VRB06KT P6SM VCSH SCT050 BKN080
      TEMPO 1715/1718 -SHRA BKN025 BKN060=



000
FTUS46 KSGX 161700
TAFTRM
TAF
KTRM 161730Z 1618/1718 VRB05KT P6SM SCT070 BKN100
     FM171200 VRB06KT P6SM VCSH SCT050 BKN080
      TEMPO 1715/1718 -SHRA BKN025 BKN060=



000
FTUS46 KSGX 161700
TAFSNA
TAF
KSNA 161730Z 1618/1718 18007KT P6SM -SHRA SCT025 BKN050
     FM170000 13006KT P6SM VCSH SCT025 BKN035
     FM170600 13006KT P6SM -SHRA SCT015 BKN025
     FM171000 19012G20KT 5SM RA VCTS BKN015 OVC025CB
      TEMPO 1712/1715 2SM +RA BKN010
     FM171500 VRB05KT P6SM VCSH SCT015 BKN035=



000
FTUS46 KSGX 161500 AAB
TAFSAN
TAF AMD
KSAN 161551Z 1616/1718 12005KT P6SM -SHRA SCT030 BKN050
      WS015/16020KT
     FM161900 17008KT P6SM VCSH SCT025 BKN045
     FM170200 16005KT P6SM VCSH SCT025 BKN035
     FM171000 18011KT P6SM VCSH BKN025 OVC035
     FM171300 21014G22KT 5SM RA VCTS BKN015 OVC025CB
      TEMPO 1713/1716 2SM +RA BKN010
     FM171700 28012KT P6SM SHRA VCTS SCT020 BKN030CB=



000
FTUS46 KSGX 161500 AAA
TAFCRQ
TAF AMD
KCRQ 161550Z 1616/1712 13006KT P6SM -SHRA SCT030 BKN060
      WS015/16020KT
     FM162000 21007KT P6SM VCSH SCT025 BKN045
     FM170100 13005KT P6SM VCSH SCT025 BKN035
     FM170800 15007KT P6SM VCSH BKN025 OVC035
     FM171100 21010G18KT 5SM RA VCTS BKN015 OVC025CB=



000
FTUS46 KSGX 161500 AAA
TAFSAN
TAF AMD
KSAN 161514Z 1615/1718 13005KT P6SM SCT030 BKN080
     FM161630 16008KT P6SM -SHRA SCT025 BKN035
     FM161900 17008KT P6SM VCSH SCT025 BKN045
     FM170200 16005KT P6SM VCSH SCT025 BKN035
     FM171000 18011KT P6SM VCSH BKN025 OVC035
     FM171300 21014G22KT 5SM RA VCTS BKN015 OVC025CB
      TEMPO 1713/1716 2SM +RA BKN010
     FM171700 28012KT P6SM SHRA VCTS SCT020 BKN030CB=



000
FTUS46 KSGX 161100
TAFTRM
TAF
KTRM 161131Z 1612/1712 31005KT P6SM SCT070 SCT150
     FM161700 VRB05KT P6SM BKN070
     FM170100 VRB05KT P6SM SCT070 BKN100=



000
FTUS46 KSGX 161100
TAFSNA
TAF
KSNA 161131Z 1612/1712 12005KT P6SM -SHRA SCT025 BKN040
     FM161800 18008KT P6SM VCSH SCT025 BKN035
     FM170200 13006KT P6SM VCSH SCT025 BKN035
     FM171000 12006KT 5SM RA VCTS BKN015 OVC025CB=



000
FTUS46 KSGX 161100
TAFSAN
TAF
KSAN 161131Z 1612/1718 13005KT P6SM SCT030 BKN045
     FM161600 16008KT P6SM -SHRA SCT025 BKN035
     FM162100 19008KT P6SM VCSH SCT025 BKN045
     FM170200 16005KT P6SM VCSH SCT025 BKN035
     FM171000 18011KT P6SM VCSH BKN025 OVC035
     FM171300 21014G22KT 5SM RA VCTS BKN015 OVC025CB
     FM171700 28012KT P6SM SHRA VCTS SCT020 BKN030CB=



000
FTUS46 KSGX 161100
TAFCRQ
TAF
KCRQ 161131Z 1612/1712 13005KT P6SM SCT030 BKN045
     FM161500 14006KT P6SM -SHRA SCT025 BKN035
     FM162000 21007KT P6SM VCSH SCT025 BKN045
     FM170100 13005KT P6SM VCSH SCT025 BKN035
     FM170800 15007KT P6SM VCSH BKN025 OVC035
     FM171100 21010G18KT 5SM RA VCTS BKN015 OVC025CB=



000
FTUS46 KSGX 161100
TAFPSP
TAF
KPSP 161131Z 1612/1712 32005KT P6SM SCT070 SCT150
     FM161500 VRB05KT P6SM BKN070
     FM170000 32005KT P6SM SCT070 BKN100=



000
FTUS46 KSGX 161100
TAFONT
TAF
KONT 161131Z 1612/1718 07005KT P6SM -SHRA SCT025 BKN050
     FM162000 24006KT P6SM VCSH SCT025 BKN045
     FM170300 05006KT P6SM VCSH SCT025 BKN035
     FM171000 VRB06KT 5SM RA VCTS BKN015 OVC025CB
     FM171700 VRB05KT P6SM -SHRA SCT020 BKN030=



000
FTUS46 KSGX 160800 AAA
TAFSAN
TAF AMD
KSAN 160859Z 1609/1712 VRB05KT P6SM SCT025 BKN035
     FM161300 15007KT P6SM VCSH SCT025 BKN040
     FM161700 17008KT P6SM -RA SCT020 BKN035
     FM162000 21008KT P6SM -SHRA VCTS SCT015 BKN035CB
     FM170000 26006KT P6SM VCSH FEW025 BKN035
     FM171000 19010KT P6SM VCSH BKN025 OVC035=



000
FTUS46 KSGX 160500
TAFPSP
TAF
KPSP 160522Z 1606/1706 VRB05KT P6SM FEW100 BKN200=



000
FTUS46 KSGX 160500
TAFSAN
TAF
KSAN 160522Z 1606/1712 VRB05KT P6SM SCT025 BKN200
     FM161100 15007KT P6SM VCSH SCT025 BKN050
     FM161300 17008KT P6SM -RA SCT020 BKN035
     FM161900 26007KT P6SM -SHRA VCTS SCT015 BKN035CB
     FM170000 26006KT P6SM VCSH FEW025 BKN035
     FM171000 19010KT P6SM VCSH BKN025 OVC035=



000
FTUS46 KSGX 160500
TAFTRM
TAF
KTRM 160522Z 1606/1706 VRB05KT P6SM FEW100 BKN200=



000
FTUS46 KSGX 160500
TAFCRQ
TAF
KCRQ 160522Z 1606/1706 VRB04KT P6SM FEW025 BKN200
     FM161000 14007KT P6SM VCSH SCT025 BKN050
     FM161200 15008KT P6SM -RA SCT020 BKN035
     FM161900 19007KT P6SM -SHRA VCTS SCT015 BKN035CB
     FM170000 24006KT P6SM VCSH FEW025 BKN035=



000
FTUS46 KSGX 160500
TAFSNA
TAF
KSNA 160522Z 1606/1706 VRB05KT P6SM FEW025 BKN200
     FM160700 11007KT P6SM -SHRA SCT025 BKN035
     FM161000 13008KT P6SM -SHRA SCT020 BKN035
     FM161800 21006KT P6SM VCTS SCT020 BKN035CB=



000
FTUS46 KSGX 160500
TAFONT
TAF
KONT 160522Z 1606/1712 VRB05KT P6SM SCT150 BKN200
     FM160800 06005KT P6SM VCSH SCT025 BKN040
     FM161100 06007KT P6SM -SHRA SCT025 BKN035
     FM161800 VRB05KT P6SM VCSH SCT025 BKN035
     FM170900 06005KT P6SM -SHRA FEW015 BKN025=



000
FTUS46 KSGX 160300 AAA
TAFCRQ
TAF AMD
KCRQ 160352Z 1604/1624 VRB04KT P6SM FEW025 BKN200
     FM161000 14007KT P6SM VCSH SCT025 BKN050
     FM161200 15008KT P6SM -SHRA SCT020 BKN035
     FM161900 19006KT P6SM VCTS SCT015 BKN025CB=



000
FTUS46 KSGX 160300 AAA
TAFCRQ
TAF AMD
KCRQ 160352Z 1604/1624 VRB04KT P6SM FEW025 BKN200
     FM161000 14007KT P6SM VCSH SCT025 BKN050
     FM161200 15008KT P6SM -SHRA SCT020 BKN035
     FM161900 19006KT P6SM VCTS SCT015 BKN025CB=



000
FTUS46 KSGX 160300 AAA
TAFSAN
TAF AMD
KSAN 160306Z 1603/1706 VRB05KT P6SM FEW025 BKN200
     FM161100 15007KT P6SM VCSH SCT025 BKN050
     FM161300 17008KT P6SM -SHRA SCT020 BKN035
     FM161900 26007KT P6SM VCTS SCT015 BKN025CB
     FM170000 26006KT P6SM VCSH FEW025 BKN035=



000
FTUS46 KSGX 152300
TAFSNA
TAF
KSNA 152334Z 1600/1624 13007KT P6SM FEW025 BKN200
     FM160700 11009KT P6SM VCSH SCT025 BKN035
     FM161000 13008KT P6SM -SHRA SCT020 BKN035
     FM161800 21006KT P6SM VCTS SCT015 BKN028CB=



000
FTUS46 KSGX 152300
TAFPSP
TAF
KPSP 152334Z 1600/1624 VRB05KT P6SM FEW100 BKN200=



000
FTUS46 KSGX 152300
TAFCRQ
TAF
KCRQ 152334Z 1600/1624 VRB04KT P6SM FEW025 BKN200
      TEMPO 1602/1606 BKN025
     FM161000 14007KT P6SM VCSH SCT025 BKN050
     FM161200 15008KT P6SM -SHRA SCT020 BKN035
     FM161900 19006KT P6SM VCTS SCT015 BKN025CB=



000
FTUS46 KSGX 152300
TAFONT
TAF
KONT 152334Z 1600/1706 VRB04KT P6SM FEW025 FEW060 BKN200
     FM160900 06005KT P6SM VCSH SCT025 BKN040
     FM161100 06007KT P6SM -SHRA SCT025 BKN035
     FM161800 VRB05KT P6SM VCSH BKN025 OVC035=



000
FTUS46 KSGX 152300
TAFSAN
TAF
KSAN 152334Z 1600/1706 VRB05KT P6SM FEW025 BKN200
      TEMPO 1602/1606 BKN025
     FM161100 15007KT P6SM VCSH SCT025 BKN050
     FM161300 17008KT P6SM -SHRA SCT020 BKN035
     FM161900 26007KT P6SM VCTS SCT015 BKN025CB
     FM170000 26006KT P6SM VCSH FEW025 BKN035=



000
FTUS46 KSGX 152300
TAFTRM
TAF
KTRM 152334Z 1600/1624 VRB05KT P6SM FEW100 BKN200=



000
FTUS46 KSGX 152100 AAA
TAFSAN
TAF AMD
KSAN 152103Z 1521/1624 21007KT P6SM BKN150
     FM160100 17005KT P6SM SCT025 BKN150
      TEMPO 1601/1605 BKN025
     FM161300 15006KT P6SM VCSH SCT025 BKN050
     FM161600 16006KT P6SM -SHRA SCT020 BKN035
     FM162000 19008KT P6SM VCSH SCT015 BKN030=



    US Dept of Commerce
    National Oceanic and Atmospheric Administration
    National Weather Service
    1325 East West Highway
    Silver Spring, MD 20910
    Page Author: NWS Internet Services Team
Disclaimer
Information Quality
Credits
Glossary
Privacy Policy
Freedom of Information Act (FOIA)
About Us
Career Opportunities